Latest Weather Observations for Charles Point

IDD60901

Issued at 6:41 pm CST Saturday 23 July 2016 (issued every 10 minutes, with the page automatically refreshed every 10 minutes)

About weather observations | Map of Darwin area stations | Latest observations for Darwin area | Other Formats
Station Details ID: 014031 Name: CHARLES POINT Lat: -12.39 Lon: 130.63 Height: 14.0 m
Data from the previous 72 hours. | See also: Recent months for locations in Northern Territory
Date/Time
CST
Temp
°C
App
Temp
°C
Dew
Point
°C
Rel
Hum
%
Delta-T
°C
Wind Press
QNH
hPa
Press
MSL
hPa
Rain since
9am
mm
Dir  Spd
km/h
Gust
km/h
Spd
kts
Gust
kts
23/06:30pm 27.0 31.2 21.7 73 3.5 WSW 2 6 1 3 1009.9 1009.8 0.0
23/06:00pm 28.3 31.9 22.1 69 4.2 WSW 6 9 3 5 1009.7 1009.6 0.0
23/05:30pm 29.1 32.6 22.1 66 4.7 W 7 15 4 8 1009.7 1009.6 0.0
23/05:00pm 29.4 31.8 21.6 63 5.2 WNW 11 15 6 8 1009.6 1009.5 0.0
23/04:30pm 29.8 32.3 21.7 61 5.5 WNW 11 15 6 8 1009.6 1009.5 0.0
23/04:00pm 29.4 32.1 22.1 65 4.9 NW 11 17 6 9 1009.6 1009.5 0.0
23/03:30pm 29.6 32.6 23.3 69 4.3 NW 13 19 7 10 1009.8 1009.7 0.0
23/03:00pm 29.9 32.9 23.3 67 4.5 WNW 13 19 7 10 1010.1 1010.0 0.0
23/02:30pm 30.1 32.5 22.3 63 5.3 WNW 13 19 7 10 1010.6 1010.5 0.0
23/02:00pm 29.9 32.4 21.8 62 5.5 WNW 11 19 6 10 1011.0 1010.9 0.0
23/01:30pm 29.7 32.3 21.9 63 5.3 NW 11 15 6 8 1011.5 1011.4 0.0
23/01:00pm 28.9 32.2 22.6 69 4.3 NW 9 11 5 6 1012.0 1011.9 0.0
23/12:30pm 28.9 32.5 23.1 71 4.0 NW 9 11 5 6 1012.3 1012.2 0.0
23/12:00pm 28.6 31.6 22.6 70 4.1 WNW 11 13 6 7 1012.8 1012.7 0.0
23/11:30am 28.3 32.2 22.5 71 3.9 SW 6 6 3 3 1013.4 1013.3 0.0
23/11:00am 28.5 32.6 22.3 69 4.2 SW 4 6 2 3 1013.7 1013.6 0.0
23/10:30am 27.8 32.0 22.5 73 3.6 SW 4 6 2 3 1013.8 1013.7 0.0
23/10:00am 27.9 32.1 22.4 72 3.7 SW 4 4 2 2 1014.0 1013.9 0.0
23/09:30am 26.9 31.4 22.3 76 3.1 SW 2 4 1 2 1013.8 1013.7 0.0
23/09:00am 26.4 30.9 22.3 78 2.8 SW 2 2 1 1 1013.7 1013.6 0.0
23/08:30am 24.1 27.7 21.2 84 1.9 SW 4 6 2 3 1013.5 1013.4 0.0
23/08:00am 22.6 26.3 21.4 93 0.8 SW 4 6 2 3 1013.1 1013.0 0.0
23/07:30am 21.5 24.7 20.5 94 0.6 SW 4 6 2 3 1012.8 1012.7 0.0
23/07:00am 21.5 24.7 20.5 94 0.6 SW 4 6 2 3 1012.6 1012.5 0.0
23/06:30am 21.8 25.1 20.8 94 0.6 SW 4 6 2 3 1012.2 1012.1 0.0
23/06:00am 22.2 25.8 21.2 94 0.7 SW 4 4 2 2 1011.9 1011.8 0.0
23/05:30am 22.7 26.0 21.5 93 0.8 SW 6 7 3 4 1011.7 1011.6 0.0
23/05:00am 23.3 27.3 22.1 93 0.8 WSW 4 6 2 3 1011.5 1011.4 0.0
23/04:30am 23.5 27.5 22.1 92 0.9 WSW 4 6 2 3 1011.2 1011.1 0.0
23/04:00am 23.7 27.7 22.0 90 1.1 WSW 4 7 2 4 1011.1 1011.0 0.0
23/03:30am 24.1 28.2 22.2 89 1.3 WSW 4 7 2 4 1011.3 1011.2 0.0
23/03:00am 24.2 28.1 22.5 90 1.1 WSW 6 9 3 5 1011.7 1011.6 0.0
23/02:30am 23.6 27.5 21.9 90 1.1 WSW 4 6 2 3 1011.8 1011.7 0.0
23/02:00am 23.8 27.8 22.1 90 1.1 WSW 4 6 2 3 1011.9 1011.8 0.0
23/01:30am 24.2 28.1 21.9 87 1.5 WSW 4 7 2 4 1011.8 1011.7 0.0
23/01:00am 24.4 27.9 21.9 86 1.7 WSW 6 6 3 3 1012.0 1011.9 0.0
23/12:30am 25.0 29.0 22.1 84 1.9 W 4 7 2 4 1012.0 1011.9 0.0
23/12:00am 24.4 27.9 21.9 86 1.7 W 6 9 3 5 1012.0 1011.9 0.0
 
Date/Time
CST
Temp
°C
App
Temp
°C
Dew
Point
°C
Rel
Hum
%
Delta-T
°C
Wind Press
QNH
hPa
Press
MSL
hPa
Rain since
9am
mm
Dir  Spd
km/h
Gust
km/h
Spd
kts
Gust
kts
22/11:30pm 23.9 27.0 21.0 84 1.9 WNW 6 7 3 4 1012.0 1011.9 0.0
22/11:00pm 25.1 29.2 23.0 88 1.4 NW 6 11 3 6 1011.8 1011.7 0.0
22/10:30pm 24.0 27.2 20.5 81 2.3 WNW 4 6 2 3 1011.8 1011.7 0.0
22/10:00pm 24.4 27.7 20.7 80 2.4 WNW 4 6 2 3 1011.5 1011.4 0.0
22/09:30pm 25.2 28.7 21.1 78 2.7 NW 4 6 2 3 1011.3 1011.2 0.0
22/09:00pm 24.5 27.8 20.8 80 2.4 NW 4 6 2 3 1011.0 1010.9 0.0
22/08:30pm 25.9 28.9 20.9 74 3.3 NW 6 7 3 4 1010.7 1010.6 0.0
22/08:00pm 26.8 29.7 21.8 74 3.3 NW 9 11 5 6 1010.5 1010.4 0.0
22/07:30pm 26.6 30.0 22.0 76 3.1 WNW 7 11 4 6 1010.3 1010.2 0.0
22/07:00pm 26.9 30.1 21.2 71 3.8 WNW 6 7 3 4 1010.0 1009.9 0.0
22/06:30pm 27.1 30.4 20.7 68 4.2 WNW 4 6 2 3 1010.1 1010.0 0.0
22/06:00pm 27.8 30.7 20.6 65 4.8 WNW 6 7 3 4 1010.0 1009.9 0.0
22/05:30pm 28.6 30.7 19.0 56 6.2 WNW 6 9 3 5 1009.9 1009.8 0.0
22/05:00pm 29.4 31.4 19.1 54 6.7 WNW 7 9 4 5 1009.9 1009.8 0.0
22/04:30pm 29.2 31.2 19.2 54 6.5 WNW 7 11 4 6 1009.8 1009.7 0.0
22/04:00pm 28.3 30.4 20.1 61 5.4 WSW 9 15 5 8 1009.9 1009.8 0.0
22/03:30pm 28.4 29.9 18.8 56 6.2 SW 9 11 5 6 1010.1 1010.0 0.0
22/03:00pm 28.3 30.1 19.5 59 5.7 SW 9 11 5 6 1010.5 1010.4 0.0
22/02:30pm 28.5 30.6 19.4 57 5.9 SW 7 9 4 5 1010.9 1010.8 0.0
22/02:00pm 28.1 29.8 18.5 56 6.1 SSE 7 9 4 5 1011.2 1011.1 0.0
22/01:30pm 27.5 29.6 19.0 59 5.5 SSE 6 7 3 4 1011.8 1011.7 0.0
22/01:00pm 28.0 30.2 19.2 58 5.7 SSE 6 9 3 5 1012.1 1012.0 0.0
22/12:30pm 27.3 29.2 18.6 59 5.6 SSE 6 9 3 5 1012.6 1012.5 0.0
22/12:00pm 27.0 29.2 19.6 64 4.8 SSE 7 9 4 5 1013.0 1012.9 0.0
22/11:30am 27.0 28.9 18.6 60 5.4 SSE 6 9 3 5 1013.5 1013.4 0.0
22/11:00am 27.5 29.2 18.5 58 5.8 SSE 7 9 4 5 1013.8 1013.7 0.0
22/10:30am 27.4 28.4 16.4 51 6.8 SSE 6 11 3 6 1014.0 1013.9 0.0
22/10:00am 26.3 27.3 16.8 56 5.9 SSW 7 11 4 6 1014.1 1014.0 0.0
22/09:30am 25.2 26.1 16.6 59 5.3 SSE 7 11 4 6 1014.2 1014.1 0.0
22/09:00am 24.3 25.2 16.6 62 4.7 SSE 7 11 4 6 1014.1 1014.0 0.0
22/08:30am 22.9 23.3 16.2 66 4.1 S 9 13 5 7 1013.9 1013.8 0.0
22/08:00am 21.3 21.9 16.7 75 2.8 S 9 15 5 8 1013.5 1013.4 0.0
22/07:30am 19.9 20.4 16.5 81 2.0 S 9 13 5 7 1013.1 1013.0 0.0
22/07:00am 19.3 19.9 16.7 85 1.6 S 9 11 5 6 1012.8 1012.7 0.0
22/06:30am 19.8 20.4 16.8 83 1.8 S 9 13 5 7 1012.7 1012.6 0.0
22/06:00am 19.8 20.9 17.2 85 1.6 S 7 11 4 6 1012.6 1012.5 0.0
22/05:30am 20.0 21.2 17.4 85 1.6 S 7 9 4 5 1012.4 1012.3 0.0
22/05:00am 20.0 21.4 17.8 87 1.4 S 7 9 4 5 1012.2 1012.1 0.0
22/04:30am 20.5 22.0 18.1 86 1.5 S 7 11 4 6 1012.1 1012.0 0.0
22/04:00am 20.7 22.6 19.0 90 1.1 S 7 11 4 6 1012.2 1012.1 0.0
22/03:30am 21.1 22.9 19.6 91 1.0 SSW 9 13 5 7 1012.0 1011.9 0.0
22/03:00am 21.3 23.1 19.6 90 1.1 SSW 9 13 5 7 1012.3 1012.2 0.0
22/02:30am 21.1 23.1 19.2 89 1.2 SSW 7 11 4 6 1012.3 1012.2 0.0
22/02:00am 21.4 23.2 19.5 89 1.2 SSW 9 13 5 7 1012.5 1012.4 0.0
22/01:30am 21.4 23.2 19.5 89 1.2 SSW 9 11 5 6 1012.7 1012.6 0.0
22/01:00am 21.2 23.1 18.9 87 1.4 SSW 7 11 4 6 1012.8 1012.7 0.0
22/12:30am 21.3 22.7 18.7 85 1.6 SSW 9 11 5 6 1012.8 1012.7 0.0
22/12:00am 21.3 22.8 19.0 87 1.5 SSW 9 13 5 7 1012.8 1012.7 0.0
 
Date/Time
CST
Temp
°C
App
Temp
°C
Dew
Point
°C
Rel
Hum
%
Delta-T
°C
Wind Press
QNH
hPa
Press
MSL
hPa
Rain since
9am
mm
Dir  Spd
km/h
Gust
km/h
Spd
kts
Gust
kts
21/11:30pm 20.9 22.9 19.2 90 1.1 SW 7 9 4 5 1012.9 1012.8 0.0
21/11:00pm 20.8 22.9 19.3 91 0.9 SW 7 9 4 5 1012.9 1012.8 0.0
21/10:30pm 20.9 23.0 19.4 91 1.0 WSW 7 9 4 5 1012.9 1012.8 0.0
21/10:00pm 20.6 22.8 19.3 92 0.8 W 6 7 3 4 1012.7 1012.6 0.0
21/09:30pm 20.7 22.9 19.2 91 0.9 WNW 6 7 3 4 1012.7 1012.6 0.0
21/09:00pm 20.8 23.0 19.1 90 1.1 NNW 6 6 3 3 1012.4 1012.3 0.0
21/08:30pm 21.5 24.9 19.4 88 1.3 CALM 0 0 0 0 1012.2 1012.1 0.0
21/08:00pm 22.0 25.3 19.2 84 1.8 CALM 0 0 0 0 1011.9 1011.8 0.0
21/07:30pm 22.8 26.1 19.2 80 2.3 CALM 0 0 0 0 1011.7 1011.6 0.0
21/07:00pm 24.8 27.9 19.6 73 3.3 NNW 2 4 1 2 1011.5 1011.4 0.0
21/06:30pm 26.2 28.6 19.6 67 4.3 NNW 6 7 3 4 1011.4 1011.3 0.0
21/06:00pm 26.8 29.1 19.4 64 4.8 NNW 6 6 3 3 1011.1 1011.0 0.0
21/05:30pm 27.3 29.6 19.4 62 5.1 NNW 6 7 3 4 1010.9 1010.8 0.0
21/05:00pm 27.7 29.8 19.0 59 5.6 NNW 6 7 3 4 1010.8 1010.7 0.0
21/04:30pm 28.1 30.2 19.3 58 5.7 NNW 7 7 4 4 1010.9 1010.8 0.0
21/04:00pm 28.4 30.2 19.6 59 5.7 NNW 9 13 5 7 1011.1 1011.0 0.0
21/03:30pm 28.3 29.5 19.0 57 6.0 NW 11 15 6 8 1011.2 1011.1 0.0
21/03:00pm 27.9 29.0 18.0 55 6.3 SSW 9 13 5 7 1011.5 1011.4 0.0
21/02:30pm 28.6 29.9 17.5 51 7.0 S 7 9 4 5 1012.0 1011.9 0.0
21/02:00pm 27.8 28.5 16.1 49 7.2 SE 7 9 4 5 1012.7 1012.6 0.0
21/01:30pm 28.1 28.9 16.4 49 7.3 SE 7 9 4 5 1013.2 1013.1 0.0
21/01:00pm 28.3 29.5 16.9 50 7.1 SE 6 7 3 4 1013.5 1013.4 0.0
21/12:30pm 28.0 30.2 19.2 58 5.7 SE 6 6 3 3 1013.9 1013.8 0.0
21/12:00pm 27.8 30.6 20.4 64 4.9 SE 6 7 3 4 1014.3 1014.2 0.0
21/11:30am 26.6 29.3 20.2 68 4.2 SE 6 7 3 4 1014.6 1014.5 0.0
21/11:00am 26.6 29.1 20.2 68 4.2 SE 7 9 4 5 1014.7 1014.6 0.0
21/10:30am 26.7 29.3 20.5 69 4.1 SE 7 9 4 5 1014.8 1014.7 0.0
21/10:00am 25.6 27.7 19.0 67 4.2 SSE 6 9 3 5 1015.0 1014.9 0.0
21/09:30am 24.9 27.6 18.6 68 4.0 SSE 2 6 1 3 1014.8 1014.7 0.0
21/09:00am 23.8 26.2 18.9 74 3.1 SSE 4 7 2 4 1014.7 1014.6 0.0
21/08:30am 22.4 24.2 18.8 80 2.3 S 7 9 4 5 1014.3 1014.2 0.0
21/08:00am 20.8 22.1 18.4 86 1.5 S 9 13 5 7 1014.0 1013.9 0.0
21/07:30am 19.8 20.9 18.1 90 1.1 S 9 11 5 6 1013.7 1013.6 0.0
21/07:00am 19.8 21.0 18.3 91 0.9 S 9 13 5 7 1013.4 1013.3 0.0
21/06:30am 20.3 21.4 18.8 91 0.9 S 11 13 6 7 1013.2 1013.1 0.0
21/06:00am 20.3 21.8 19.0 92 0.8 S 9 11 5 6 1013.0 1012.9 0.0
21/05:30am 20.5 22.2 19.3 93 0.8 S 9 13 5 7 1012.8 1012.7 0.0
21/05:00am 20.5 22.2 19.3 93 0.8 S 9 13 5 7 1012.7 1012.6 0.0
21/04:30am 20.6 22.3 19.3 92 0.8 S 9 11 5 6 1012.7 1012.6 0.0
21/04:00am 20.9 23.1 19.6 92 0.8 S 7 11 4 6 1012.6 1012.5 0.0
21/03:30am 20.8 22.6 19.5 92 0.8 SSW 9 13 5 7 1012.7 1012.6 0.0
21/03:00am 21.0 22.8 19.5 91 1.0 S 9 13 5 7 1013.0 1012.9 0.0
21/02:30am 21.1 22.8 19.4 90 1.1 S 9 11 5 6 1013.3 1013.2 0.0
21/02:00am 21.4 23.4 19.9 91 1.0 S 9 13 5 7 1013.4 1013.3 0.0
21/01:30am 21.6 23.7 20.2 92 0.9 S 9 11 5 6 1013.5 1013.4 0.0
21/01:00am 21.3 23.1 19.6 90 1.1 SSW 9 11 5 6 1013.7 1013.6 0.0
21/12:30am 21.4 23.7 19.9 91 1.0 SSW 7 9 4 5 1013.8 1013.7 0.0
21/12:00am 21.6 23.6 19.9 90 1.1 S 9 15 5 8 1014.0 1013.9 0.0
 
Date/Time
CST
Temp
°C
App
Temp
°C
Dew
Point
°C
Rel
Hum
%
Delta-T
°C
Wind Press
QNH
hPa
Press
MSL
hPa
Rain since
9am
mm
Dir  Spd
km/h
Gust
km/h
Spd
kts
Gust
kts
20/11:30pm 21.6 23.6 19.9 90 1.1 SSW 9 13 5 7 1014.0 1013.9 0.0
20/11:00pm 20.6 22.4 18.7 89 1.2 NW 7 9 4 5 1013.7 1013.6 0.0
20/10:30pm 20.3 22.3 18.8 91 0.9 N 6 7 3 4 1013.7 1013.6 0.0
20/10:00pm 20.2 22.1 18.5 90 1.1 N 6 6 3 3 1013.5 1013.4 0.0
20/09:30pm 20.4 23.5 18.7 90 1.1 CALM 0 0 0 0 1013.2 1013.1 0.0
20/09:00pm 20.9 24.1 18.8 88 1.3 CALM 0 0 0 0 1012.9 1012.8 0.0
20/08:30pm 21.3 24.4 18.7 85 1.6 CALM 0 0 0 0 1012.7 1012.6 0.0
20/08:00pm 21.9 25.0 18.7 82 2.0 CALM 0 0 0 0 1012.2 1012.1 0.0
20/07:30pm 22.7 25.6 18.3 76 2.8 CALM 0 2 0 1 1011.9 1011.8 0.0
20/07:00pm 25.6 28.1 19.0 67 4.2 N 4 6 2 3 1011.6 1011.5 0.0

Latest Capital City Observations: Canberra | Sydney | Melbourne | Brisbane | Adelaide | Perth | Hobart | Darwin

Other Formats:

Comma delimited format used in spreadsheet applications
http://www.bom.gov.au/fwo/IDD60901/IDD60901.99510.axf

JavaScript Object Notation format (JSON) in row-major order
http://www.bom.gov.au/fwo/IDD60901/IDD60901.99510.json